Time;durP1;ratioP1;P1;durP2;ratioP2;P2;SDS_P1;SDS_P2;PMS_P1;PMS_P2;Temp;Humidity;BMP_temperature;BMP_pressure;BME280_temperature;BME280_humidity;BME280_pressure;Samples;Min_cycle;Max_cycle;Signal;HPM_P1;HPM_P2
2021/05/13 00:02:03;;;;;;;10.00;5.45;;;9.30;99.90;;;;;;6190941;23;20025;-92
2021/05/13 00:04:30;;;;;;;14.13;5.13;;;9.20;99.90;;;;;;6201759;23;20019;-92
2021/05/13 00:07:00;;;;;;;11.27;5.10;;;9.20;99.90;;;;;;6195317;23;20032;-92
2021/05/13 00:09:30;;;;;;;13.75;5.05;;;9.20;99.90;;;;;;6191572;23;20306;-92
2021/05/13 00:12:00;;;;;;;11.52;5.43;;;9.20;99.90;;;;;;6185862;23;20041;-91
2021/05/13 00:14:27;;;;;;;12.23;5.82;;;9.20;99.90;;;;;;6186724;23;20021;-92
2021/05/13 00:16:54;;;;;;;11.95;5.22;;;9.10;99.90;;;;;;6184552;23;20027;-93
2021/05/13 00:19:22;;;;;;;12.20;5.80;;;9.10;99.90;;;;;;6186421;23;20028;-92
2021/05/13 00:21:49;;;;;;;9.68;5.57;;;9.00;99.90;;;;;;6185944;23;20021;-93
2021/05/13 00:24:16;;;;;;;10.45;6.05;;;9.00;99.90;;;;;;6185094;23;20025;-93
2021/05/13 00:26:48;;;;;;;12.30;6.18;;;9.00;99.90;;;;;;6187227;23;20097;-92
2021/05/13 00:29:27;;;;;;;10.13;5.97;;;9.00;99.90;;;;;;6187629;23;20458;-91
2021/05/13 00:31:54;;;;;;;12.13;5.93;;;8.90;99.90;;;;;;6188038;23;20393;-93
2021/05/13 00:34:21;;;;;;;15.80;7.07;;;8.90;99.90;;;;;;6188094;23;20155;-94
2021/05/13 00:36:48;;;;;;;12.32;6.78;;;8.80;99.90;;;;;;6187005;23;20036;-92
2021/05/13 00:39:15;;;;;;;11.80;6.40;;;8.80;99.90;;;;;;6186585;23;20084;-93
2021/05/13 00:41:42;;;;;;;12.45;6.70;;;8.80;99.90;;;;;;6187720;23;20028;-93
2021/05/13 00:44:09;;;;;;;11.93;6.90;;;8.80;99.90;;;;;;6187186;23;20381;-93
2021/05/13 00:46:36;;;;;;;12.55;6.93;;;8.70;99.90;;;;;;6185729;23;20385;-90
2021/05/13 00:49:07;;;;;;;12.45;6.65;;;8.70;99.90;;;;;;6186383;23;20017;-93
2021/05/13 00:51:36;;;;;;;17.75;7.28;;;8.80;99.90;;;;;;6186337;23;20338;-92
2021/05/13 00:54:03;;;;;;;7.95;6.38;;;8.80;99.90;;;;;;6187462;23;20048;-93
2021/05/13 00:56:30;;;;;;;14.95;7.57;;;8.80;99.90;;;;;;6186451;23;20025;-92
2021/05/13 00:59:12;;;;;;;17.55;7.82;;;8.90;99.90;;;;;;6211432;23;20032;-90
2021/05/13 01:04:18;;;;;;;14.02;7.60;;;8.80;99.90;;;;;;6187200;23;20104;-91
2021/05/13 01:06:46;;;;;;;8.57;6.85;;;8.80;99.90;;;;;;6187480;23;20021;-91
2021/05/13 01:09:20;;;;;;;17.38;7.65;;;8.70;99.90;;;;;;6187648;23;20027;-91
2021/05/13 01:11:53;;;;;;;11.02;7.40;;;8.70;99.90;;;;;;6187834;23;20404;-90
2021/05/13 01:19:46;;;;;;;10.05;6.30;;;8.60;99.90;;;;;;6187646;23;20289;-91
2021/05/13 01:22:14;;;;;;;14.30;7.00;;;8.60;99.90;;;;;;6185769;23;20021;-91
2021/05/13 01:24:41;;;;;;;14.98;7.82;;;8.50;99.90;;;;;;6187324;23;20051;-90
2021/05/13 01:27:09;;;;;;;13.55;7.25;;;8.50;99.90;;;;;;6187721;23;20088;-91
2021/05/13 01:29:45;;;;;;;8.85;6.30;;;8.50;99.90;;;;;;6187163;23;20681;-91
2021/05/13 01:32:17;;;;;;;11.43;7.45;;;8.50;99.90;;;;;;6186107;23;20424;-92
2021/05/13 01:34:45;;;;;;;12.00;7.00;;;8.50;99.90;;;;;;6186510;23;20028;-90
2021/05/13 01:37:12;;;;;;;15.10;7.38;;;8.50;99.90;;;;;;6187255;23;20021;-91
2021/05/13 01:39:42;;;;;;;14.20;7.18;;;8.50;99.90;;;;;;6187220;23;20036;-91
2021/05/13 01:42:13;;;;;;;10.45;6.57;;;8.40;99.90;;;;;;6187479;23;20067;-91
2021/05/13 01:44:43;;;;;;;11.65;6.82;;;8.30;99.90;;;;;;6186115;23;20076;-92
2021/05/13 01:47:14;;;;;;;11.52;7.28;;;8.30;99.90;;;;;;6186786;23;20017;-92
2021/05/13 01:49:41;;;;;;;11.13;7.25;;;8.20;99.90;;;;;;6187124;23;20033;-91
2021/05/13 01:52:11;;;;;;;15.32;8.68;;;8.10;99.90;;;;;;6161334;23;20020;-91
2021/05/13 01:54:38;;;;;;;8.93;6.68;;;8.10;99.90;;;;;;6187181;23;20025;-93
2021/05/13 01:57:16;;;;;;;;;;;;;;;;;;;;;
2021/05/13 01:59:54;;;;;;;11.75;7.55;;;8.00;99.90;;;;;;6186512;23;20063;-94
2021/05/13 02:02:21;;;;;;;14.93;7.80;;;7.90;99.90;;;;;;6186413;23;20025;-92
2021/05/13 02:04:48;;;;;;;14.60;8.90;;;7.90;99.90;;;;;;6186652;23;20452;-93
2021/05/13 02:07:16;;;;;;;14.80;8.38;;;7.80;99.90;;;;;;6188246;23;20131;-92
2021/05/13 02:09:57;;;;;;;19.08;9.45;;;7.80;99.90;;;;;;6185504;23;20487;-91
2021/05/13 02:12:26;;;;;;;15.15;8.30;;;7.80;99.90;;;;;;6186631;23;20021;-91
2021/05/13 02:14:53;;;;;;;13.93;8.05;;;7.70;99.90;;;;;;6185980;23;20268;-91
2021/05/13 02:17:20;;;;;;;13.80;9.63;;;7.60;99.90;;;;;;6161462;23;20401;-91
2021/05/13 02:19:47;;;;;;;12.75;9.20;;;7.60;99.90;;;;;;6187038;23;20017;-91
2021/05/13 02:22:14;;;;;;;14.27;9.65;;;7.50;99.90;;;;;;6185202;23;20516;-92
2021/05/13 02:24:41;;;;;;;19.92;10.07;;;7.50;99.90;;;;;;6186246;23;20028;-92
2021/05/13 02:27:08;;;;;;;14.60;9.68;;;7.50;99.90;;;;;;6184802;23;20080;-91
2021/05/13 02:29:35;;;;;;;15.00;9.90;;;7.40;99.90;;;;;;6187394;23;20075;-91
2021/05/13 02:32:03;;;;;;;18.65;10.55;;;7.30;99.90;;;;;;6190825;23;20075;-91
2021/05/13 02:34:30;;;;;;;19.38;11.43;;;7.30;99.90;;;;;;6194401;23;20029;-90
2021/05/13 02:36:57;;;;;;;25.25;11.75;;;7.30;99.90;;;;;;6193957;23;20025;-91
2021/05/13 02:39:25;;;;;;;21.42;12.45;;;7.30;99.90;;;;;;6186639;23;20025;-92
2021/05/13 02:41:51;;;;;;;16.65;11.85;;;7.30;99.90;;;;;;6187229;23;20029;-90
2021/05/13 02:44:19;;;;;;;14.65;11.73;;;7.30;99.90;;;;;;6195911;23;20282;-91
2021/05/13 02:46:48;;;;;;;20.98;13.13;;;7.30;99.90;;;;;;6194627;23;20021;-92
2021/05/13 02:49:18;;;;;;;27.30;13.15;;;7.20;99.90;;;;;;6191575;23;20029;-91
2021/05/13 02:51:45;;;;;;;22.02;12.75;;;7.30;99.90;;;;;;6186790;23;20021;-91
2021/05/13 02:54:12;;;;;;;19.70;13.50;;;7.20;99.90;;;;;;6185882;23;20095;-92
2021/05/13 02:56:39;;;;;;;20.55;13.15;;;7.10;99.90;;;;;;6186010;23;20024;-91
2021/05/13 02:59:06;;;;;;;18.52;14.40;;;7.10;99.90;;;;;;6186752;23;20033;-91
2021/05/13 03:01:34;;;;;;;21.70;14.02;;;7.10;99.90;;;;;;6186457;23;20028;-91
2021/05/13 03:04:01;;;;;;;21.73;14.77;;;7.10;99.90;;;;;;6186537;23;20017;-91
2021/05/13 03:06:30;;;;;;;21.92;14.20;;;7.00;99.90;;;;;;6186230;23;20078;-92
2021/05/13 03:08:58;;;;;;;26.02;15.75;;;6.90;99.90;;;;;;6186816;23;20016;-92
2021/05/13 03:11:27;;;;;;;26.70;15.23;;;6.80;99.90;;;;;;6185940;23;20018;-90
2021/05/13 03:13:57;;;;;;;25.27;16.27;;;6.70;99.90;;;;;;6186642;23;20439;-91
2021/05/13 03:16:24;;;;;;;27.30;15.63;;;6.60;99.90;;;;;;6184401;23;20049;-91
2021/05/13 03:18:54;;;;;;;24.05;16.02;;;6.70;99.90;;;;;;6186182;23;20035;-92
2021/05/13 03:21:34;;;;;;;24.55;16.75;;;6.80;99.90;;;;;;6185704;23;20108;-91
2021/05/13 03:24:13;;;;;;;26.60;16.70;;;6.80;99.90;;;;;;6185715;23;20364;-92
2021/05/13 03:29:18;;;;;;;28.30;18.85;;;6.90;99.90;;;;;;6184719;23;20021;-91
2021/05/13 03:31:45;;;;;;;38.25;19.80;;;7.00;99.90;;;;;;6185092;23;20095;-92
2021/05/13 03:34:14;;;;;;;27.20;17.88;;;7.00;99.90;;;;;;6184604;23;20087;-91
2021/05/13 03:36:41;;;;;;;27.60;18.02;;;7.00;99.90;;;;;;6186078;23;20032;-91
2021/05/13 03:39:10;;;;;;;32.75;19.73;;;7.00;99.90;;;;;;6186306;23;20068;-91
2021/05/13 03:41:37;;;;;;;34.55;20.70;;;7.00;99.90;;;;;;6185658;23;20020;-91
2021/05/13 03:44:05;;;;;;;29.98;20.63;;;7.00;99.90;;;;;;6185858;23;20017;-91
2021/05/13 03:46:32;;;;;;;48.33;23.13;;;7.00;99.90;;;;;;6186284;23;20060;-91
2021/05/13 03:48:59;;;;;;;43.25;23.17;;;7.10;99.90;;;;;;6185640;23;20090;-91
2021/05/13 03:51:26;;;;;;;37.30;23.48;;;7.20;99.90;;;;;;6186037;23;20025;-91
2021/05/13 03:53:54;;;;;;;43.00;25.52;;;7.20;99.90;;;;;;6184764;23;20025;-91
2021/05/13 03:56:22;;;;;;;44.78;24.48;;;7.30;99.90;;;;;;6184628;23;20025;-92
2021/05/13 03:58:57;;;;;;;36.90;23.65;;;7.40;99.90;;;;;;6186223;23;20025;-91
2021/05/13 04:01:43;;;;;;;33.38;21.85;;;7.30;99.90;;;;;;6186121;23;20025;-92
2021/05/13 04:04:11;;;;;;;35.15;21.00;;;7.40;99.90;;;;;;6187872;23;20071;-91
2021/05/13 04:06:39;;;;;;;31.98;21.80;;;7.40;99.90;;;;;;6191859;23;20052;-91
2021/05/13 04:09:10;;;;;;;35.92;22.27;;;7.40;99.90;;;;;;6191999;23;20467;-90
2021/05/13 04:11:39;;;;;;;42.30;24.15;;;7.50;99.90;;;;;;6196610;23;20092;-91
2021/05/13 04:14:09;;;;;;;34.70;22.30;;;7.60;99.90;;;;;;6192222;23;20024;-90
2021/05/13 04:16:39;;;;;;;32.70;21.48;;;7.70;99.90;;;;;;6191812;23;20041;-92
2021/05/13 04:19:06;;;;;;;31.60;20.10;;;7.80;99.90;;;;;;6186909;23;20072;-91
2021/05/13 04:21:40;;;;;;;30.92;21.23;;;7.80;99.90;;;;;;6161058;23;20045;-91
2021/05/13 04:24:08;;;;;;;31.60;20.13;;;7.90;99.90;;;;;;6188301;23;20116;-91
2021/05/13 04:26:35;;;;;;;30.17;20.40;;;7.90;99.90;;;;;;6188706;23;20021;-91
2021/05/13 04:29:08;;;;;;;31.05;20.15;;;8.00;99.90;;;;;;6188301;23;20025;-92
2021/05/13 04:36:14;;;;;;;29.40;17.75;;;8.10;99.90;;;;;;6190261;23;20289;-90
2021/05/13 04:38:59;;;;;;;30.85;19.00;;;8.20;99.90;;;;;;6187030;23;20401;-92
2021/05/13 04:41:31;;;;;;;31.02;18.67;;;8.30;99.90;;;;;;6188309;23;20079;-91
2021/05/13 04:44:04;;;;;;;28.95;18.45;;;8.40;99.90;;;;;;6187775;23;20017;-91
2021/05/13 04:46:44;;;;;;;24.45;16.23;;;8.40;99.90;;;;;;6194168;23;20017;-92
2021/05/13 04:49:19;;;;;;;28.73;16.55;;;8.50;99.90;;;;;;6198701;23;20025;-91
2021/05/13 04:51:47;;;;;;;19.35;14.43;;;8.60;99.90;;;;;;6193387;23;20029;-92
2021/05/13 04:54:17;;;;;;;23.20;15.82;;;8.70;99.90;;;;;;6188614;23;20028;-91
2021/05/13 04:56:46;;;;;;;21.52;14.27;;;8.70;99.90;;;;;;6187951;23;20025;-92
2021/05/13 04:59:14;;;;;;;20.05;13.45;;;8.80;99.90;;;;;;6190003;23;20387;-92
2021/05/13 05:01:43;;;;;;;17.30;13.23;;;8.80;99.90;;;;;;6187589;23;20095;-91
2021/05/13 05:04:11;;;;;;;22.17;13.43;;;8.90;99.90;;;;;;6186954;23;20271;-92
2021/05/13 05:06:37;;;;;;;22.50;13.73;;;9.00;99.90;;;;;;6187547;23;20152;-91
2021/05/13 05:09:16;;;;;;;22.75;13.32;;;9.10;99.90;;;;;;6186183;23;20103;-93
2021/05/13 05:11:45;;;;;;;19.25;12.30;;;9.10;99.90;;;;;;6188411;23;20029;-91
2021/05/13 05:14:12;;;;;;;17.98;12.20;;;9.20;99.90;;;;;;6162283;23;20029;-91
2021/05/13 05:16:38;;;;;;;14.63;11.55;;;9.30;99.90;;;;;;6185566;23;20025;-92
2021/05/13 05:19:15;;;;;;;16.67;11.52;;;9.40;99.90;;;;;;6211021;23;20021;-92
2021/05/13 05:21:54;;;;;;;17.55;11.68;;;9.50;99.90;;;;;;6186647;23;20100;-91
2021/05/13 05:24:21;;;;;;;19.35;11.45;;;9.60;99.90;;;;;;6187048;23;20054;-90
2021/05/13 05:26:48;;;;;;;16.02;10.90;;;9.70;99.90;;;;;;6187572;23;20340;-91
2021/05/13 05:29:16;;;;;;;19.60;10.93;;;9.80;99.90;;;;;;6186316;23;20017;-91
2021/05/13 05:31:43;;;;;;;14.60;9.98;;;9.90;99.90;;;;;;6189237;23;20067;-91
2021/05/13 05:34:13;;;;;;;13.88;10.70;;;10.00;99.90;;;;;;6187189;23;20079;-91
2021/05/13 05:36:42;;;;;;;14.45;10.48;;;10.20;99.90;;;;;;6187600;23;20021;-91
2021/05/13 05:39:09;;;;;;;11.65;9.68;;;10.40;99.90;;;;;;6186436;23;20087;-90
2021/05/13 05:41:36;;;;;;;13.45;9.80;;;10.60;99.90;;;;;;6187386;23;20432;-90
2021/05/13 05:44:05;;;;;;;16.08;9.50;;;10.80;99.90;;;;;;6197526;23;20021;-92
2021/05/13 05:46:45;;;;;;;15.82;10.25;;;10.90;99.90;;;;;;6200920;23;20013;-92
2021/05/13 05:49:39;;;;;;;16.38;9.50;;;10.90;99.90;;;;;;6185514;23;20328;-91
2021/05/13 06:08:05;;;;;;;9.15;6.70;;;11.70;99.90;;;;;;6199119;23;20032;-91
2021/05/13 06:10:47;;;;;;;8.45;6.65;;;11.80;99.90;;;;;;6191560;23;20021;-93
2021/05/13 06:17:37;;;;;;;8.48;6.35;;;12.00;99.90;;;;;;6010349;23;20163;-91
2021/05/13 06:20:31;;;;;;;11.27;6.07;;;12.00;99.90;;;;;;6042751;23;20086;-92
2021/05/13 06:23:05;;;;;;;10.57;5.65;;;12.20;99.90;;;;;;6070534;23;20101;-93
2021/05/13 06:26:05;;;;;;;;;;;;;;;;;;;;;
2021/05/13 06:28:37;;;;;;;10.25;5.50;;;12.60;99.90;;;;;;6124524;23;20017;-92
2021/05/13 06:31:29;;;;;;;7.00;4.97;;;12.80;99.90;;;;;;6166977;23;20029;-93
2021/05/13 06:34:04;;;;;;;8.75;4.80;;;13.20;99.90;;;;;;6186821;23;20021;-92
2021/05/13 06:37:03;;;;;;;;;;;;;;;;;;;;;
2021/05/13 06:40:40;;;;;;;8.05;4.40;;;13.40;99.90;;;;;;6154242;23;20020;-93
2021/05/13 06:43:19;;;;;;;6.28;4.60;;;13.40;99.90;;;;;;6191878;23;20017;-94
2021/05/13 06:45:59;;;;;;;6.72;3.95;;;13.80;99.90;;;;;;6197243;23;20079;-93
2021/05/13 06:48:51;;;;;;;6.72;4.00;;;14.00;99.90;;;;;;6194601;23;20083;-93
2021/05/13 06:51:54;;;;;;;;;;;;;;;;;;;;;
2021/05/13 06:54:32;;;;;;;7.38;3.83;;;14.20;99.90;;;;;;6195428;23;20099;-91
2021/05/13 06:57:34;;;;;;;5.70;4.03;;;14.20;99.90;;;;;;6201739;23;20043;-93
2021/05/13 07:00:50;;;;;;;5.22;3.60;;;14.30;99.90;;;;;;6135591;23;20048;-91
2021/05/13 07:03:20;;;;;;;8.77;4.32;;;14.90;99.90;;;;;;6173725;23;20036;-94
2021/05/13 07:05:52;;;;;;;9.90;4.40;;;15.20;99.90;;;;;;6160684;23;20021;-93
2021/05/13 07:08:19;;;;;;;;;;;15.20;99.90;;;;;;6161613;23;20374;-92
2021/05/13 07:10:49;;;;;;;7.78;3.80;;;15.40;99.90;;;;;;6161515;23;19917;-93
2021/05/13 07:13:16;;;;;;;5.70;3.50;;;15.80;99.90;;;;;;6169363;23;20033;-92
2021/05/13 07:15:43;;;;;;;7.40;3.53;;;16.20;99.90;;;;;;6164593;23;20053;-91
2021/05/13 07:18:16;;;;;;;6.35;3.08;;;16.10;99.90;;;;;;6166210;23;20033;-92
2021/05/13 07:20:45;;;;;;;7.07;3.08;;;16.40;99.90;;;;;;6165757;23;20084;-92
2021/05/13 07:23:13;;;;;;;5.28;3.00;;;16.40;99.20;;;;;;6165813;23;20069;-90
2021/05/13 07:25:41;;;;;;;4.60;3.22;;;16.30;98.40;;;;;;6166516;23;20028;-91
2021/05/13 07:28:09;;;;;;;5.97;3.13;;;16.40;99.90;;;;;;6160725;23;20090;-91
2021/05/13 07:30:36;;;;;;;7.38;3.00;;;16.60;95.60;;;;;;6157688;23;20032;-90
2021/05/13 07:33:03;;;;;;;5.18;3.00;;;16.70;95.90;;;;;;6155919;23;20160;-92
2021/05/13 07:35:30;;;;;;;4.93;2.50;;;16.60;96.30;;;;;;6159449;23;20025;-91
2021/05/13 07:37:58;;;;;;;5.30;2.70;;;17.00;93.50;;;;;;6132063;23;20032;-90
2021/05/13 07:40:28;;;;;;;4.97;3.22;;;17.20;91.00;;;;;;6158059;23;20040;-91
2021/05/13 07:42:56;;;;;;;4.70;2.42;;;17.60;91.10;;;;;;6156488;23;20160;-91
2021/05/13 07:45:24;;;;;;;5.15;2.53;;;18.40;84.90;;;;;;6156043;23;20029;-91
2021/05/13 07:47:51;;;;;;;4.15;2.22;;;18.60;78.40;;;;;;6156298;23;20035;-91
2021/05/13 07:50:26;;;;;;;6.82;2.45;;;18.50;79.20;;;;;;6153808;23;20022;-91
2021/05/13 07:52:54;;;;;;;6.93;2.90;;;18.50;82.20;;;;;;6155782;23;20382;-90
2021/05/13 07:55:21;;;;;;;5.07;2.35;;;18.80;80.30;;;;;;6130615;23;20539;-90
2021/05/13 07:57:48;;;;;;;4.95;2.40;;;19.20;78.60;;;;;;6154605;23;20026;-91
2021/05/13 08:00:17;;;;;;;4.57;1.80;;;19.90;70.90;;;;;;6156532;23;20022;-91
2021/05/13 08:02:47;;;;;;;4.85;2.50;;;20.50;66.10;;;;;;6131791;23;20017;-89
2021/05/13 08:05:14;;;;;;;7.28;1.58;;;20.80;63.90;;;;;;6129540;23;20029;-92
2021/05/13 08:07:41;;;;;;;2.97;1.75;;;20.90;60.50;;;;;;6207528;23;20475;-90
2021/05/13 08:10:11;;;;;;;3.67;1.70;;;21.00;58.20;;;;;;6185965;23;20405;-94
2021/05/13 08:12:41;;;;;;;5.65;1.67;;;21.20;60.00;;;;;;6189253;23;20036;-91
2021/05/13 08:15:11;;;;;;;3.33;1.30;;;21.20;57.50;;;;;;6161707;23;20047;-91
2021/05/13 08:17:42;;;;;;;5.60;1.50;;;21.10;56.50;;;;;;6189747;23;20028;-90
2021/05/13 08:20:13;;;;;;;6.35;1.80;;;21.20;56.70;;;;;;6188811;23;20096;-91
2021/05/13 08:22:41;;;;;;;1.70;1.00;;;21.90;56.80;;;;;;6188942;23;20104;-90
2021/05/13 08:25:09;;;;;;;2.70;1.00;;;22.10;57.50;;;;;;6141051;23;20032;-89
2021/05/13 08:27:39;;;;;;;2.30;1.00;;;22.80;54.40;;;;;;6194559;23;20050;-90
2021/05/13 08:30:07;;;;;;;2.92;1.17;;;23.30;49.90;;;;;;6166096;23;20036;-91
2021/05/13 08:32:34;;;;;;;2.08;1.13;;;22.80;49.50;;;;;;6192427;23;20021;-90
2021/05/13 08:35:02;;;;;;;2.13;1.02;;;22.40;49.70;;;;;;6187881;23;20167;-91
2021/05/13 08:37:29;;;;;;;1.70;0.85;;;22.30;51.20;;;;;;6192884;23;20052;-90
2021/05/13 08:39:56;;;;;;;4.05;1.20;;;22.90;50.60;;;;;;6193711;23;20483;-91
2021/05/13 08:42:24;;;;;;;2.30;1.00;;;23.10;50.50;;;;;;6189208;23;20153;-92
2021/05/13 08:44:52;;;;;;;3.50;1.10;;;23.00;47.90;;;;;;6160756;23;20021;-92
2021/05/13 08:47:18;;;;;;;3.13;1.10;;;23.30;49.30;;;;;;6185140;23;20025;-90
2021/05/13 08:49:46;;;;;;;3.47;1.05;;;23.50;48.20;;;;;;6161716;23;20088;-91
2021/05/13 08:52:19;;;;;;;3.72;0.90;;;22.80;48.60;;;;;;6187644;23;20083;-91
2021/05/13 08:54:54;;;;;;;1.95;0.88;;;22.10;49.70;;;;;;6187609;23;20029;-89
2021/05/13 08:57:22;;;;;;;2.08;1.00;;;22.00;49.10;;;;;;6185225;23;20095;-90
2021/05/13 08:59:50;;;;;;;6.20;1.00;;;22.40;50.00;;;;;;6186633;23;20025;-90
2021/05/13 09:02:21;;;;;;;3.88;0.75;;;22.70;47.80;;;;;;6186147;23;20071;-92
2021/05/13 09:04:52;;;;;;;2.38;0.93;;;22.90;47.00;;;;;;6185237;23;20021;-93
2021/05/13 09:07:29;;;;;;;3.40;0.82;;;23.60;47.10;;;;;;6188806;23;20416;-92
2021/05/13 09:10:10;;;;;;;3.50;0.98;;;23.90;44.00;;;;;;6185754;23;20025;-91
2021/05/13 09:12:48;;;;;;;5.20;0.93;;;23.80;45.80;;;;;;6186182;23;20370;-91
2021/05/13 09:15:28;;;;;;;5.32;1.30;;;23.20;50.40;;;;;;6160417;23;20255;-89
2021/05/13 09:17:59;;;;;;;3.38;1.13;;;22.50;48.30;;;;;;6186337;23;20044;-90
2021/05/13 09:20:28;;;;;;;2.50;0.98;;;21.90;50.70;;;;;;6186356;23;20041;-89
2021/05/13 09:23:14;;;;;;;4.32;1.02;;;21.80;52.30;;;;;;6192571;23;20029;-88
2021/05/13 09:25:46;;;;;;;2.67;1.15;;;21.10;53.30;;;;;;6196658;23;20049;-88
2021/05/13 09:28:28;;;;;;;4.18;1.23;;;20.70;56.20;;;;;;6187110;23;20043;-89
2021/05/13 09:30:54;;;;;;;3.95;1.23;;;21.00;53.10;;;;;;6185953;23;20108;-89
2021/05/13 09:33:42;;;;;;;3.72;1.17;;;20.90;55.30;;;;;;6185568;23;20033;-93
2021/05/13 09:36:21;;;;;;;4.10;1.00;;;20.80;51.20;;;;;;6159781;23;20039;-89
2021/05/13 09:38:48;;;;;;;2.20;0.95;;;20.10;52.80;;;;;;6187512;23;20090;-92
2021/05/13 09:41:34;;;;;;;5.65;1.00;;;19.80;53.70;;;;;;6159838;23;20087;-92
2021/05/13 09:44:09;;;;;;;2.28;1.02;;;19.30;56.60;;;;;;6184583;23;20424;-90
2021/05/13 09:46:36;;;;;;;3.00;0.85;;;19.00;57.30;;;;;;6184009;23;20330;-89
2021/05/13 09:49:04;;;;;;;4.25;1.35;;;18.40;58.40;;;;;;6186262;23;20075;-91
2021/05/13 09:51:37;;;;;;;5.43;1.40;;;18.10;59.90;;;;;;6160733;23;20056;-89
2021/05/13 09:54:17;;;;;;;3.13;0.90;;;17.80;61.50;;;;;;6185417;23;20013;-91
2021/05/13 09:56:47;;;;;;;4.90;0.95;;;17.60;61.20;;;;;;6185563;23;20021;-89
2021/05/13 09:59:28;;;;;;;5.78;1.42;;;17.60;62.90;;;;;;6159801;23;20095;-90
2021/05/13 10:02:07;;;;;;;3.72;1.20;;;17.50;62.10;;;;;;6185892;23;20104;-90
2021/05/13 10:04:34;;;;;;;2.70;1.30;;;17.50;65.80;;;;;;6185969;23;20029;-90
2021/05/13 10:07:06;;;;;;;4.13;1.10;;;17.50;66.00;;;;;;6185704;23;20025;-91
2021/05/13 10:09:33;;;;;;;4.38;1.30;;;17.40;65.80;;;;;;6185991;23;20021;-93
2021/05/13 10:12:24;;;;;;;4.60;1.48;;;17.20;66.40;;;;;;6185705;23;20040;-93
2021/05/13 10:14:53;;;;;;;1.95;0.80;;;17.20;63.50;;;;;;6190343;23;20091;-92
2021/05/13 10:17:28;;;;;;;5.72;1.10;;;17.10;63.20;;;;;;6186751;23;20025;-93
2021/05/13 10:19:58;;;;;;;3.30;1.00;;;17.00;62.70;;;;;;6186986;23;20024;-92
2021/05/13 10:22:25;;;;;;;2.95;1.10;;;16.60;63.50;;;;;;6187459;23;20350;-93
2021/05/13 10:25:21;;;;;;;3.70;1.02;;;16.40;65.80;;;;;;6187481;23;20087;-91
2021/05/13 10:27:50;;;;;;;2.75;1.20;;;15.90;70.20;;;;;;6189294;23;20274;-92
2021/05/13 10:30:37;;;;;;;4.97;1.17;;;15.30;76.40;;;;;;6187624;23;20113;-92
2021/05/13 10:33:14;;;;;;;4.45;1.55;;;15.00;83.70;;;;;;6189022;23;20052;-94
2021/05/13 10:36:05;;;;;;;3.28;1.35;;;14.70;95.10;;;;;;6162208;23;20337;-93
2021/05/13 10:38:41;;;;;;;2.75;1.10;;;14.50;96.60;;;;;;6190089;23;20029;-93
2021/05/13 10:41:31;;;;;;;4.00;1.25;;;14.20;99.90;;;;;;6188655;23;20087;-92
2021/05/13 10:44:07;;;;;;;3.88;1.20;;;14.10;96.10;;;;;;6188685;23;20458;-93
2021/05/13 10:46:36;;;;;;;1.63;1.00;;;14.10;95.90;;;;;;6190612;23;20116;-91
2021/05/13 10:49:16;;;;;;;2.95;1.00;;;14.20;93.30;;;;;;6186421;23;20123;-91
2021/05/13 10:52:53;;;;;;;1.52;1.00;;;14.60;92.00;;;;;;6126296;23;20026;-91
2021/05/13 10:55:36;;;;;;;3.17;0.90;;;15.00;85.70;;;;;;6012393;23;20032;-92
2021/05/13 10:58:04;;;;;;;2.10;0.75;;;15.00;82.10;;;;;;6067925;23;20026;-94
2021/05/13 11:00:32;;;;;;;1.20;0.75;;;15.00;82.00;;;;;;6125561;23;20104;-93
2021/05/13 11:03:19;;;;;;;1.45;0.70;;;15.20;79.80;;;;;;6102107;23;20017;-92
2021/05/13 11:05:48;;;;;;;2.03;0.75;;;15.30;76.80;;;;;;6127440;23;20109;-93
2021/05/13 11:08:17;;;;;;;2.75;0.70;;;15.50;78.10;;;;;;6127730;23;20018;-92
2021/05/13 11:10:51;;;;;;;0.80;0.70;;;15.90;74.40;;;;;;6126354;23;20017;-91
2021/05/13 11:13:21;;;;;;;1.92;0.90;;;16.20;70.00;;;;;;6127463;23;20022;-93
2021/05/13 11:15:54;;;;;;;1.38;0.73;;;16.50;67.60;;;;;;6103513;23;20163;-93
2021/05/13 11:18:41;;;;;;;2.50;0.50;;;16.70;67.10;;;;;;6134338;23;20037;-91
2021/05/13 11:21:08;;;;;;;1.45;0.60;;;16.90;67.10;;;;;;6130440;23;20081;-92
2021/05/13 11:23:38;;;;;;;3.00;0.80;;;16.60;71.50;;;;;;6147352;23;20021;-90
2021/05/13 11:26:14;;;;;;;2.13;1.02;;;16.20;75.80;;;;;;6187613;23;20423;-89
2021/05/13 11:28:46;;;;;;;2.22;0.90;;;15.80;82.00;;;;;;6187656;23;20021;-91
2021/05/13 11:31:27;;;;;;;2.08;0.82;;;15.40;89.10;;;;;;6162297;23;20017;-91
2021/05/13 11:34:08;;;;;;;1.90;0.88;;;15.30;90.40;;;;;;6189846;23;20092;-92
2021/05/13 11:36:50;;;;;;;3.80;1.20;;;15.00;90.40;;;;;;6189180;23;20097;-94
2021/05/13 11:39:18;;;;;;;2.35;0.90;;;15.00;90.20;;;;;;6161359;23;20105;-90
2021/05/13 11:41:46;;;;;;;3.03;1.05;;;15.40;87.70;;;;;;6186228;23;20060;-91
2021/05/13 11:44:20;;;;;;;1.92;0.93;;;15.50;81.70;;;;;;6187002;23;20096;-91
2021/05/13 11:46:51;;;;;;;1.92;1.08;;;15.40;82.50;;;;;;6186065;23;20021;-90
2021/05/13 11:49:20;;;;;;;3.05;1.10;;;15.60;84.60;;;;;;6161936;23;20056;-91
2021/05/13 11:51:47;;;;;;;3.28;0.77;;;15.70;83.00;;;;;;6186982;23;20071;-89
2021/05/13 11:54:21;;;;;;;0.98;0.60;;;15.90;82.20;;;;;;6187386;23;20017;-92
2021/05/13 11:56:49;;;;;;;1.40;0.60;;;16.00;79.50;;;;;;6188109;23;20021;-91
2021/05/13 11:59:18;;;;;;;2.58;0.80;;;16.20;76.80;;;;;;6186310;23;20117;-92
2021/05/13 12:01:48;;;;;;;1.52;0.75;;;16.30;77.30;;;;;;6189341;23;20478;-91
2021/05/13 12:04:24;;;;;;;1.20;0.75;;;16.20;76.50;;;;;;6188125;23;20021;-89
2021/05/13 12:06:55;;;;;;;3.75;1.00;;;15.90;76.10;;;;;;6186417;23;20052;-91
2021/05/13 12:09:25;;;;;;;0.50;0.50;;;15.80;74.90;;;;;;6161444;23;20109;-92
2021/05/13 12:11:58;;;;;;;2.70;0.60;;;15.70;72.90;;;;;;6184659;23;20017;-92
2021/05/13 12:14:27;;;;;;;0.73;0.65;;;15.70;70.90;;;;;;6188663;23;20032;-91
2021/05/13 12:17:04;;;;;;;0.98;0.70;;;15.70;71.60;;;;;;6187217;23;20033;-91
2021/05/13 12:19:35;;;;;;;1.42;0.68;;;15.60;72.40;;;;;;6191782;23;20133;-93
2021/05/13 12:22:15;;;;;;;2.00;1.10;;;15.40;73.20;;;;;;6160492;23;20024;-92
2021/05/13 12:25:47;;;;;;;;;;;;;;;;;;;;;
2021/05/13 12:28:17;;;;;;;2.28;0.90;;;15.10;75.40;;;;;;6184657;23;20025;-90
2021/05/13 12:30:51;;;;;;;0.80;0.70;;;15.10;77.90;;;;;;6184836;23;20102;-89
2021/05/13 12:33:25;;;;;;;3.55;1.17;;;15.00;79.00;;;;;;6185747;23;20083;-92
2021/05/13 12:35:53;;;;;;;2.25;1.00;;;15.10;79.80;;;;;;6158759;23;20087;-90
2021/05/13 12:38:23;;;;;;;1.45;0.85;;;15.40;79.60;;;;;;6186400;23;20012;-92
2021/05/13 12:41:27;;;;;;;2.33;0.80;;;15.50;80.40;;;;;;6186185;23;20269;-93
2021/05/13 12:44:34;;;;;;;1.00;0.65;;;15.50;78.40;;;;;;6184965;23;20031;-93
2021/05/13 12:47:04;;;;;;;0.88;0.70;;;15.70;80.10;;;;;;6186802;23;20048;-90
2021/05/13 12:49:32;;;;;;;1.63;0.70;;;15.80;82.50;;;;;;6184374;23;20265;-91
2021/05/13 12:52:02;;;;;;;1.42;1.02;;;16.00;80.10;;;;;;6183818;23;20025;-86
2021/05/13 12:54:36;;;;;;;1.95;1.05;;;15.90;79.90;;;;;;6162603;23;20021;-88
2021/05/13 12:57:20;;;;;;;0.88;0.70;;;16.10;80.10;;;;;;6161681;23;20025;-87
2021/05/13 12:59:56;;;;;;;1.88;0.90;;;16.10;79.70;;;;;;6189441;23;20052;-88
2021/05/13 13:02:31;;;;;;;10.35;2.58;;;16.40;78.30;;;;;;6157602;23;20029;-88
2021/05/13 13:04:59;;;;;;;2.63;0.75;;;16.70;77.90;;;;;;6183874;23;20029;-88
2021/05/13 13:07:55;;;;;;;0.95;0.70;;;16.90;76.60;;;;;;6156638;23;20452;-87
2021/05/13 13:10:25;;;;;;;4.68;1.70;;;16.90;79.30;;;;;;6179311;23;20029;-87
2021/05/13 13:13:06;;;;;;;1.95;0.57;;;16.80;82.90;;;;;;6183290;23;20436;-90
2021/05/13 13:15:42;;;;;;;0.68;0.57;;;17.00;78.60;;;;;;6184941;23;20444;-91
2021/05/13 13:18:11;;;;;;;2.63;0.68;;;17.40;74.50;;;;;;6183838;23;20021;-91
2021/05/13 13:20:41;;;;;;;0.70;0.50;;;17.40;70.20;;;;;;6184221;23;20075;-90
2021/05/13 13:23:21;;;;;;;4.38;0.68;;;17.40;71.70;;;;;;6186448;23;20055;-91
2021/05/13 13:25:49;;;;;;;2.05;0.75;;;17.30;72.20;;;;;;6184831;23;20017;-91
2021/05/13 13:28:20;;;;;;;3.00;1.00;;;17.40;71.50;;;;;;6186045;23;20433;-92
2021/05/13 13:30:57;;;;;;;1.10;0.60;;;17.80;72.20;;;;;;6161487;23;20423;-92
2021/05/13 13:33:26;;;;;;;2.35;0.90;;;18.70;70.30;;;;;;6160240;23;20412;-93
2021/05/13 13:35:54;;;;;;;3.28;0.60;;;18.70;69.20;;;;;;6186826;23;20098;-89
2021/05/13 13:38:26;;;;;;;2.30;0.77;;;18.20;71.70;;;;;;6185569;23;20025;-88
2021/05/13 13:41:02;;;;;;;1.95;0.68;;;17.40;74.00;;;;;;6185931;23;20283;-92
2021/05/13 13:43:32;;;;;;;0.68;0.60;;;17.10;76.80;;;;;;6185764;23;20024;-91
2021/05/13 13:46:01;;;;;;;1.23;0.70;;;17.20;74.70;;;;;;6173427;23;20455;-91
2021/05/13 13:48:34;;;;;;;1.35;1.00;;;17.40;73.80;;;;;;6186305;23;20060;-91
2021/05/13 13:51:04;;;;;;;3.80;1.33;;;18.00;70.30;;;;;;6191018;23;20021;-89
2021/05/13 13:53:31;;;;;;;1.35;0.68;;;19.30;65.70;;;;;;6197213;23;20021;-91
2021/05/13 13:56:16;;;;;;;0.65;0.30;;;20.40;61.00;;;;;;6171008;23;20021;-92